TimeCDT,TemperatureF,Dew PointF,Humidity,Sea Level PressureIn,VisibilityMPH,Wind Direction,Wind SpeedMPH,Gust SpeedMPH,PrecipitationIn,Events,Conditions,WindDirDegrees,DateUTC
12:52 AM,42.1,25.0,51,30.25,10.0,NNE,8.1,-,N/A,,Overcast,20,2013-04-02 05:52:00
1:52 AM,41.0,24.1,51,30.28,10.0,NE,6.9,-,N/A,,Overcast,40,2013-04-02 06:52:00
2:52 AM,39.0,23.0,53,30.26,10.0,ENE,9.2,-,N/A,,Overcast,60,2013-04-02 07:52:00
3:52 AM,39.0,21.9,50,30.27,10.0,ENE,9.2,-,N/A,,Overcast,60,2013-04-02 08:52:00
4:52 AM,39.0,21.0,49,30.26,10.0,NE,10.4,-,N/A,,Overcast,40,2013-04-02 09:52:00
5:52 AM,37.0,23.0,57,30.27,8.0,ENE,6.9,-,0.02,Rain,Light Rain,70,2013-04-02 10:52:00
6:52 AM,36.0,25.0,64,30.30,10.0,ENE,4.6,-,0.01,Rain,Light Rain,60,2013-04-02 11:52:00
7:52 AM,35.1,26.1,70,30.30,10.0,ENE,4.6,-,0.01,,Overcast,60,2013-04-02 12:52:00
8:52 AM,36.0,26.1,67,30.31,10.0,ENE,8.1,-,0.01,,Overcast,70,2013-04-02 13:52:00
9:52 AM,37.0,26.1,65,30.29,10.0,ENE,9.2,-,0.03,,Overcast,60,2013-04-02 14:52:00
10:52 AM,37.9,25.0,60,30.30,10.0,ENE,10.4,-,0.01,,Overcast,70,2013-04-02 15:52:00
11:52 AM,41.0,26.1,55,30.32,10.0,East,8.1,-,N/A,,Overcast,80,2013-04-02 16:52:00
12:52 PM,42.1,26.1,53,30.30,10.0,East,9.2,-,N/A,,Overcast,100,2013-04-02 17:52:00
1:52 PM,45.0,27.0,49,30.29,10.0,East,10.4,-,N/A,,Overcast,100,2013-04-02 18:52:00
2:52 PM,44.1,25.0,47,30.28,10.0,ENE,10.4,16.1,N/A,,Overcast,60,2013-04-02 19:52:00
3:52 PM,43.0,24.1,47,30.27,10.0,ENE,10.4,-,N/A,,Overcast,70,2013-04-02 20:52:00
4:52 PM,43.0,23.0,45,30.25,10.0,NE,10.4,-,N/A,,Mostly Cloudy,50,2013-04-02 21:52:00
5:52 PM,43.0,23.0,45,30.25,10.0,ENE,6.9,-,N/A,,Overcast,70,2013-04-02 22:52:00
6:52 PM,43.0,25.0,49,30.25,10.0,East,8.1,-,N/A,,Mostly Cloudy,100,2013-04-02 23:52:00
7:52 PM,42.1,26.1,53,30.25,10.0,ESE,4.6,-,N/A,,Mostly Cloudy,120,2013-04-03 00:52:00
8:52 PM,39.9,27.0,60,30.25,10.0,ESE,3.5,-,N/A,,Clear,110,2013-04-03 01:52:00
9:52 PM,39.0,27.0,62,30.27,10.0,Calm,Calm,-,N/A,,Clear,0,2013-04-03 02:52:00
10:52 PM,39.9,28.0,63,30.26,10.0,ENE,4.6,-,N/A,,Overcast,70,2013-04-03 03:52:00
11:52 PM,39.9,28.0,63,30.28,10.0,East,4.6,-,N/A,,Overcast,80,2013-04-03 04:52:00